Maßnahmen aufgrund der Corona-Krise

 

Liebe Mitglieder, liebe Besucher


basierend auf den Verordnungen des Landes Baden-Württemberg und den Empfehlungen des BWLV hat der Vorstand folgendes entschieden:

Der Flugbetrieb und alle Vereinsaktivitäten (inkl. Modellflug)  am Flugplatz Nortel werden ab sofort eingestellt.

  • Die Eröffnung der Gaststätte wird vorerst auf den 19.4. verschoben.
  • Die Schulung ist bis zum 19.4. eingestellt. Das betrifft auch Überprüfungsflüge.

Wir bitten alle Mitglieder und Besucher um Verständnis.

Sofern sich Änderungen ergeben, werden wir sofort informieren.

Wir wünschen Allen in dieser schwierigen Zeit vor allem Gesundheit.

Der Vorstand
AeroClub Göppingen-Salach

 

 

 

 

  • 1

WebCam

  
Kamera Halle
Kamera Vorfeld

GPS Triangle WM Sports Class

AeroClub Göppingen-Salach e.V.
Ausrichter der Modellflug
GPS Triangle-WM 2020

Wetter EDDS

METAR

EDDS 301950Z 02006KT CAVOK 01/M10 Q1024 NOSIG =
EDDS 301700Z 3018/3118 02008KT CAVOK BECMG 3020/3022 VRB03KT BECMG 3106/3108 05006KT


TAF

EDDS 301700Z 3018/3118 02008KT CAVOK BECMG 3020/3022 VRB03KT BECMG 3106/3108 05006KT =


SR/SS

05:02 / 17:49 UTC
(EDSO 30-03-2020)